sensor_id;sensor_type;location;lat;lon;timestamp;P1;durP1;ratioP1;P2;durP2;ratioP2
53056;SDS011;38940;50.096;4.012;2023-06-26T00:00:41;6.00;;;2.40;;
53056;SDS011;38940;50.096;4.012;2023-06-26T00:03:07;4.77;;;2.50;;
53056;SDS011;38940;50.096;4.012;2023-06-26T00:05:33;7.10;;;2.15;;
53056;SDS011;38940;50.096;4.012;2023-06-26T00:07:59;5.25;;;2.20;;
53056;SDS011;38940;50.096;4.012;2023-06-26T00:10:28;8.63;;;2.25;;
53056;SDS011;38940;50.096;4.012;2023-06-26T00:12:54;5.78;;;2.40;;
53056;SDS011;38940;50.096;4.012;2023-06-26T00:15:20;7.75;;;2.13;;
53056;SDS011;38940;50.096;4.012;2023-06-26T00:17:46;6.60;;;2.47;;
53056;SDS011;38940;50.096;4.012;2023-06-26T00:20:12;6.70;;;2.20;;
53056;SDS011;38940;50.096;4.012;2023-06-26T00:22:39;6.68;;;2.05;;
53056;SDS011;38940;50.096;4.012;2023-06-26T00:25:06;5.35;;;2.22;;
53056;SDS011;38940;50.096;4.012;2023-06-26T00:27:32;7.47;;;2.30;;
53056;SDS011;38940;50.096;4.012;2023-06-26T00:29:58;6.25;;;2.50;;
53056;SDS011;38940;50.096;4.012;2023-06-26T00:32:24;5.97;;;2.37;;
53056;SDS011;38940;50.096;4.012;2023-06-26T00:34:50;10.57;;;2.50;;
53056;SDS011;38940;50.096;4.012;2023-06-26T00:37:17;7.25;;;2.45;;
53056;SDS011;38940;50.096;4.012;2023-06-26T00:39:43;6.47;;;2.30;;
53056;SDS011;38940;50.096;4.012;2023-06-26T00:42:09;5.32;;;2.40;;
53056;SDS011;38940;50.096;4.012;2023-06-26T00:44:35;6.63;;;2.25;;
53056;SDS011;38940;50.096;4.012;2023-06-26T00:47:01;4.97;;;2.40;;
53056;SDS011;38940;50.096;4.012;2023-06-26T00:49:27;5.82;;;2.58;;
53056;SDS011;38940;50.096;4.012;2023-06-26T00:51:53;5.57;;;2.38;;
53056;SDS011;38940;50.096;4.012;2023-06-26T00:54:20;6.40;;;2.50;;
53056;SDS011;38940;50.096;4.012;2023-06-26T00:56:47;6.68;;;2.15;;
53056;SDS011;38940;50.096;4.012;2023-06-26T00:59:13;6.32;;;2.33;;
53056;SDS011;38940;50.096;4.012;2023-06-26T01:01:39;6.70;;;2.37;;
53056;SDS011;38940;50.096;4.012;2023-06-26T01:04:05;6.97;;;2.20;;
53056;SDS011;38940;50.096;4.012;2023-06-26T01:06:31;8.20;;;2.50;;
53056;SDS011;38940;50.096;4.012;2023-06-26T01:09:02;7.20;;;2.38;;
53056;SDS011;38940;50.096;4.012;2023-06-26T01:11:28;6.47;;;2.40;;
53056;SDS011;38940;50.096;4.012;2023-06-26T01:13:54;5.43;;;2.27;;
53056;SDS011;38940;50.096;4.012;2023-06-26T01:16:23;6.20;;;2.70;;
53056;SDS011;38940;50.096;4.012;2023-06-26T01:18:49;9.50;;;2.80;;
53056;SDS011;38940;50.096;4.012;2023-06-26T01:21:15;9.43;;;2.50;;
53056;SDS011;38940;50.096;4.012;2023-06-26T01:23:54;8.70;;;3.05;;
53056;SDS011;38940;50.096;4.012;2023-06-26T01:26:23;7.00;;;2.65;;
53056;SDS011;38940;50.096;4.012;2023-06-26T01:28:51;8.63;;;2.72;;
53056;SDS011;38940;50.096;4.012;2023-06-26T01:31:18;8.93;;;2.67;;
53056;SDS011;38940;50.096;4.012;2023-06-26T01:33:44;6.23;;;2.70;;
53056;SDS011;38940;50.096;4.012;2023-06-26T01:36:11;7.22;;;2.65;;
53056;SDS011;38940;50.096;4.012;2023-06-26T01:38:37;8.52;;;2.70;;
53056;SDS011;38940;50.096;4.012;2023-06-26T01:41:05;7.32;;;2.22;;
53056;SDS011;38940;50.096;4.012;2023-06-26T01:51:42;7.67;;;2.67;;
53056;SDS011;38940;50.096;4.012;2023-06-26T01:54:10;6.43;;;2.45;;
53056;SDS011;38940;50.096;4.012;2023-06-26T01:56:39;8.13;;;2.87;;
53056;SDS011;38940;50.096;4.012;2023-06-26T01:59:05;8.25;;;2.42;;
53056;SDS011;38940;50.096;4.012;2023-06-26T02:01:32;6.13;;;2.40;;
53056;SDS011;38940;50.096;4.012;2023-06-26T02:03:58;11.35;;;2.50;;
53056;SDS011;38940;50.096;4.012;2023-06-26T02:06:24;9.77;;;2.73;;
53056;SDS011;38940;50.096;4.012;2023-06-26T02:08:50;9.48;;;2.83;;
53056;SDS011;38940;50.096;4.012;2023-06-26T02:11:16;7.75;;;2.40;;
53056;SDS011;38940;50.096;4.012;2023-06-26T02:13:42;11.53;;;2.53;;
53056;SDS011;38940;50.096;4.012;2023-06-26T02:16:08;8.07;;;2.42;;
53056;SDS011;38940;50.096;4.012;2023-06-26T02:18:34;7.88;;;2.30;;
53056;SDS011;38940;50.096;4.012;2023-06-26T02:21:03;9.52;;;2.40;;
53056;SDS011;38940;50.096;4.012;2023-06-26T02:23:29;6.93;;;2.37;;
53056;SDS011;38940;50.096;4.012;2023-06-26T02:25:55;9.90;;;2.60;;
53056;SDS011;38940;50.096;4.012;2023-06-26T02:28:21;12.40;;;2.60;;
53056;SDS011;38940;50.096;4.012;2023-06-26T02:30:47;9.85;;;2.30;;
53056;SDS011;38940;50.096;4.012;2023-06-26T02:33:13;7.22;;;2.28;;
53056;SDS011;38940;50.096;4.012;2023-06-26T02:35:39;7.10;;;2.40;;
53056;SDS011;38940;50.096;4.012;2023-06-26T02:38:05;11.60;;;2.45;;
53056;SDS011;38940;50.096;4.012;2023-06-26T02:40:31;6.95;;;2.35;;
53056;SDS011;38940;50.096;4.012;2023-06-26T02:42:57;9.90;;;2.47;;
53056;SDS011;38940;50.096;4.012;2023-06-26T02:45:23;10.63;;;2.10;;
53056;SDS011;38940;50.096;4.012;2023-06-26T02:47:49;17.90;;;2.53;;
53056;SDS011;38940;50.096;4.012;2023-06-26T02:50:15;12.02;;;2.45;;
53056;SDS011;38940;50.096;4.012;2023-06-26T02:52:41;8.50;;;2.50;;
53056;SDS011;38940;50.096;4.012;2023-06-26T02:55:07;8.52;;;2.42;;
53056;SDS011;38940;50.096;4.012;2023-06-26T02:57:33;8.00;;;2.10;;
53056;SDS011;38940;50.096;4.012;2023-06-26T02:59:59;9.07;;;2.10;;
53056;SDS011;38940;50.096;4.012;2023-06-26T03:02:25;10.35;;;2.47;;
53056;SDS011;38940;50.096;4.012;2023-06-26T03:04:51;8.07;;;2.15;;
53056;SDS011;38940;50.096;4.012;2023-06-26T03:07:17;9.93;;;2.33;;
53056;SDS011;38940;50.096;4.012;2023-06-26T03:09:43;12.18;;;2.55;;
53056;SDS011;38940;50.096;4.012;2023-06-26T03:12:09;10.15;;;2.78;;
53056;SDS011;38940;50.096;4.012;2023-06-26T03:14:35;10.23;;;2.50;;
53056;SDS011;38940;50.096;4.012;2023-06-26T03:17:01;9.82;;;2.42;;
53056;SDS011;38940;50.096;4.012;2023-06-26T03:19:28;9.52;;;2.53;;
53056;SDS011;38940;50.096;4.012;2023-06-26T03:21:55;9.50;;;2.40;;
53056;SDS011;38940;50.096;4.012;2023-06-26T03:24:21;13.18;;;2.97;;
53056;SDS011;38940;50.096;4.012;2023-06-26T03:26:47;14.23;;;2.65;;
53056;SDS011;38940;50.096;4.012;2023-06-26T03:29:13;9.82;;;2.55;;
53056;SDS011;38940;50.096;4.012;2023-06-26T03:31:39;11.73;;;2.50;;
53056;SDS011;38940;50.096;4.012;2023-06-26T03:34:05;11.32;;;2.45;;
53056;SDS011;38940;50.096;4.012;2023-06-26T03:36:31;12.43;;;2.42;;
53056;SDS011;38940;50.096;4.012;2023-06-26T03:38:57;11.40;;;2.83;;
53056;SDS011;38940;50.096;4.012;2023-06-26T03:41:23;11.98;;;2.70;;
53056;SDS011;38940;50.096;4.012;2023-06-26T03:43:49;15.18;;;2.85;;
53056;SDS011;38940;50.096;4.012;2023-06-26T03:46:15;12.35;;;2.40;;
53056;SDS011;38940;50.096;4.012;2023-06-26T03:48:41;13.13;;;2.57;;
53056;SDS011;38940;50.096;4.012;2023-06-26T03:51:07;15.52;;;2.63;;
53056;SDS011;38940;50.096;4.012;2023-06-26T03:53:33;13.35;;;2.70;;
53056;SDS011;38940;50.096;4.012;2023-06-26T03:55:59;9.57;;;2.50;;
53056;SDS011;38940;50.096;4.012;2023-06-26T03:58:25;10.90;;;2.30;;
53056;SDS011;38940;50.096;4.012;2023-06-26T04:00:51;13.75;;;2.50;;
53056;SDS011;38940;50.096;4.012;2023-06-26T04:03:18;12.50;;;2.85;;
53056;SDS011;38940;50.096;4.012;2023-06-26T04:05:44;11.25;;;2.65;;
53056;SDS011;38940;50.096;4.012;2023-06-26T04:08:10;11.65;;;2.88;;
53056;SDS011;38940;50.096;4.012;2023-06-26T04:10:36;13.40;;;3.10;;
53056;SDS011;38940;50.096;4.012;2023-06-26T04:13:02;12.23;;;2.97;;
53056;SDS011;38940;50.096;4.012;2023-06-26T04:15:28;12.32;;;2.90;;
53056;SDS011;38940;50.096;4.012;2023-06-26T04:17:54;15.75;;;3.03;;
53056;SDS011;38940;50.096;4.012;2023-06-26T04:20:20;12.15;;;2.67;;
53056;SDS011;38940;50.096;4.012;2023-06-26T04:22:46;9.52;;;3.08;;
53056;SDS011;38940;50.096;4.012;2023-06-26T04:25:12;15.02;;;2.67;;
53056;SDS011;38940;50.096;4.012;2023-06-26T04:27:38;14.25;;;2.97;;
53056;SDS011;38940;50.096;4.012;2023-06-26T04:30:04;16.17;;;2.97;;
53056;SDS011;38940;50.096;4.012;2023-06-26T04:32:31;17.40;;;2.85;;
53056;SDS011;38940;50.096;4.012;2023-06-26T04:34:57;13.90;;;3.20;;
53056;SDS011;38940;50.096;4.012;2023-06-26T04:37:23;15.93;;;3.00;;
53056;SDS011;38940;50.096;4.012;2023-06-26T04:39:49;11.32;;;2.60;;
53056;SDS011;38940;50.096;4.012;2023-06-26T04:42:15;16.20;;;3.10;;
53056;SDS011;38940;50.096;4.012;2023-06-26T04:44:42;11.57;;;2.47;;
53056;SDS011;38940;50.096;4.012;2023-06-26T04:47:08;16.42;;;2.95;;
53056;SDS011;38940;50.096;4.012;2023-06-26T04:49:34;15.63;;;2.70;;
53056;SDS011;38940;50.096;4.012;2023-06-26T04:52:00;13.17;;;2.60;;
53056;SDS011;38940;50.096;4.012;2023-06-26T04:54:26;16.30;;;2.65;;
53056;SDS011;38940;50.096;4.012;2023-06-26T04:56:55;14.60;;;2.80;;
53056;SDS011;38940;50.096;4.012;2023-06-26T04:59:21;12.85;;;2.83;;
53056;SDS011;38940;50.096;4.012;2023-06-26T05:01:47;18.23;;;3.47;;
53056;SDS011;38940;50.096;4.012;2023-06-26T05:04:14;15.60;;;2.70;;
53056;SDS011;38940;50.096;4.012;2023-06-26T05:06:40;17.30;;;3.15;;
53056;SDS011;38940;50.096;4.012;2023-06-26T05:09:08;13.60;;;2.45;;
53056;SDS011;38940;50.096;4.012;2023-06-26T05:11:35;12.18;;;2.35;;
53056;SDS011;38940;50.096;4.012;2023-06-26T05:14:01;14.68;;;2.65;;
53056;SDS011;38940;50.096;4.012;2023-06-26T05:16:27;17.02;;;3.17;;
53056;SDS011;38940;50.096;4.012;2023-06-26T05:18:53;15.40;;;2.30;;
53056;SDS011;38940;50.096;4.012;2023-06-26T05:21:19;13.52;;;2.50;;
53056;SDS011;38940;50.096;4.012;2023-06-26T05:23:46;12.20;;;2.67;;
53056;SDS011;38940;50.096;4.012;2023-06-26T05:26:12;15.20;;;2.97;;
53056;SDS011;38940;50.096;4.012;2023-06-26T05:28:38;19.40;;;2.70;;
53056;SDS011;38940;50.096;4.012;2023-06-26T05:31:05;12.90;;;2.13;;
53056;SDS011;38940;50.096;4.012;2023-06-26T05:33:31;14.80;;;2.53;;
53056;SDS011;38940;50.096;4.012;2023-06-26T05:36:00;13.05;;;2.10;;
53056;SDS011;38940;50.096;4.012;2023-06-26T05:38:26;14.70;;;2.53;;
53056;SDS011;38940;50.096;4.012;2023-06-26T05:40:52;11.38;;;2.13;;
53056;SDS011;38940;50.096;4.012;2023-06-26T05:43:18;12.45;;;3.22;;
53056;SDS011;38940;50.096;4.012;2023-06-26T05:45:46;11.32;;;2.30;;
53056;SDS011;38940;50.096;4.012;2023-06-26T05:48:12;12.32;;;2.05;;
53056;SDS011;38940;50.096;4.012;2023-06-26T05:50:38;12.80;;;2.53;;
53056;SDS011;38940;50.096;4.012;2023-06-26T05:53:07;14.77;;;2.38;;
53056;SDS011;38940;50.096;4.012;2023-06-26T05:55:33;11.32;;;2.35;;
53056;SDS011;38940;50.096;4.012;2023-06-26T05:57:59;11.43;;;2.70;;
53056;SDS011;38940;50.096;4.012;2023-06-26T06:00:26;12.52;;;2.20;;
53056;SDS011;38940;50.096;4.012;2023-06-26T06:02:52;10.70;;;2.10;;
53056;SDS011;38940;50.096;4.012;2023-06-26T06:05:19;10.27;;;2.17;;
53056;SDS011;38940;50.096;4.012;2023-06-26T06:07:45;13.13;;;2.50;;
53056;SDS011;38940;50.096;4.012;2023-06-26T06:10:11;16.55;;;2.45;;
53056;SDS011;38940;50.096;4.012;2023-06-26T06:12:37;11.50;;;2.40;;
53056;SDS011;38940;50.096;4.012;2023-06-26T06:15:03;11.07;;;2.28;;
53056;SDS011;38940;50.096;4.012;2023-06-26T06:17:29;10.10;;;2.25;;
53056;SDS011;38940;50.096;4.012;2023-06-26T06:19:55;10.37;;;2.30;;
53056;SDS011;38940;50.096;4.012;2023-06-26T06:22:21;13.88;;;2.13;;
53056;SDS011;38940;50.096;4.012;2023-06-26T06:24:48;12.20;;;2.22;;
53056;SDS011;38940;50.096;4.012;2023-06-26T06:27:15;12.13;;;1.98;;
53056;SDS011;38940;50.096;4.012;2023-06-26T06:29:40;12.02;;;2.22;;
53056;SDS011;38940;50.096;4.012;2023-06-26T06:32:07;11.30;;;2.03;;
53056;SDS011;38940;50.096;4.012;2023-06-26T06:34:33;13.40;;;1.95;;
53056;SDS011;38940;50.096;4.012;2023-06-26T06:36:59;14.00;;;1.90;;
53056;SDS011;38940;50.096;4.012;2023-06-26T06:39:25;10.40;;;1.75;;
53056;SDS011;38940;50.096;4.012;2023-06-26T06:41:51;11.43;;;1.55;;
53056;SDS011;38940;50.096;4.012;2023-06-26T06:44:17;13.05;;;2.10;;
53056;SDS011;38940;50.096;4.012;2023-06-26T06:46:43;8.68;;;1.83;;
53056;SDS011;38940;50.096;4.012;2023-06-26T06:49:09;12.02;;;1.85;;
53056;SDS011;38940;50.096;4.012;2023-06-26T06:51:35;11.90;;;1.80;;
53056;SDS011;38940;50.096;4.012;2023-06-26T06:54:01;12.97;;;2.13;;
53056;SDS011;38940;50.096;4.012;2023-06-26T06:56:27;9.83;;;1.83;;
53056;SDS011;38940;50.096;4.012;2023-06-26T06:58:53;9.48;;;2.05;;
53056;SDS011;38940;50.096;4.012;2023-06-26T07:01:19;15.23;;;2.25;;
53056;SDS011;38940;50.096;4.012;2023-06-26T07:03:45;12.83;;;1.90;;
53056;SDS011;38940;50.096;4.012;2023-06-26T07:06:11;8.27;;;1.92;;
53056;SDS011;38940;50.096;4.012;2023-06-26T07:08:37;11.45;;;1.65;;
53056;SDS011;38940;50.096;4.012;2023-06-26T07:11:03;13.43;;;2.20;;
53056;SDS011;38940;50.096;4.012;2023-06-26T07:13:29;13.75;;;1.83;;
53056;SDS011;38940;50.096;4.012;2023-06-26T07:15:55;10.85;;;1.75;;
53056;SDS011;38940;50.096;4.012;2023-06-26T07:18:21;13.35;;;2.35;;
53056;SDS011;38940;50.096;4.012;2023-06-26T07:20:47;12.47;;;2.17;;
53056;SDS011;38940;50.096;4.012;2023-06-26T07:23:13;13.00;;;1.77;;
53056;SDS011;38940;50.096;4.012;2023-06-26T07:25:39;8.55;;;1.70;;
53056;SDS011;38940;50.096;4.012;2023-06-26T07:28:11;15.68;;;1.95;;
53056;SDS011;38940;50.096;4.012;2023-06-26T07:30:37;16.80;;;2.35;;
53056;SDS011;38940;50.096;4.012;2023-06-26T07:33:04;12.43;;;2.10;;
53056;SDS011;38940;50.096;4.012;2023-06-26T07:35:30;9.13;;;2.03;;
53056;SDS011;38940;50.096;4.012;2023-06-26T07:37:56;11.60;;;1.75;;
53056;SDS011;38940;50.096;4.012;2023-06-26T07:40:22;16.38;;;2.05;;
53056;SDS011;38940;50.096;4.012;2023-06-26T07:42:48;7.93;;;1.70;;
53056;SDS011;38940;50.096;4.012;2023-06-26T07:45:15;12.23;;;2.00;;
53056;SDS011;38940;50.096;4.012;2023-06-26T07:47:41;10.02;;;1.83;;
53056;SDS011;38940;50.096;4.012;2023-06-26T07:50:07;9.93;;;1.80;;
53056;SDS011;38940;50.096;4.012;2023-06-26T07:52:33;10.00;;;1.90;;
53056;SDS011;38940;50.096;4.012;2023-06-26T07:54:59;9.55;;;1.42;;
53056;SDS011;38940;50.096;4.012;2023-06-26T07:57:25;12.55;;;2.10;;
53056;SDS011;38940;50.096;4.012;2023-06-26T07:59:51;6.90;;;1.40;;
53056;SDS011;38940;50.096;4.012;2023-06-26T08:02:17;10.73;;;1.90;;
53056;SDS011;38940;50.096;4.012;2023-06-26T08:04:44;10.20;;;1.73;;
53056;SDS011;38940;50.096;4.012;2023-06-26T08:07:10;12.50;;;2.00;;
53056;SDS011;38940;50.096;4.012;2023-06-26T08:09:36;11.88;;;1.95;;
53056;SDS011;38940;50.096;4.012;2023-06-26T08:12:02;20.63;;;2.60;;
53056;SDS011;38940;50.096;4.012;2023-06-26T08:14:28;9.52;;;2.10;;
53056;SDS011;38940;50.096;4.012;2023-06-26T08:16:54;13.53;;;1.93;;
53056;SDS011;38940;50.096;4.012;2023-06-26T08:19:20;12.90;;;2.03;;
53056;SDS011;38940;50.096;4.012;2023-06-26T08:21:46;9.57;;;2.15;;
53056;SDS011;38940;50.096;4.012;2023-06-26T08:24:12;9.07;;;1.75;;
53056;SDS011;38940;50.096;4.012;2023-06-26T08:26:41;11.38;;;1.70;;
53056;SDS011;38940;50.096;4.012;2023-06-26T08:29:07;9.50;;;1.63;;
53056;SDS011;38940;50.096;4.012;2023-06-26T08:31:36;10.85;;;1.83;;
53056;SDS011;38940;50.096;4.012;2023-06-26T08:34:03;7.28;;;1.55;;
53056;SDS011;38940;50.096;4.012;2023-06-26T08:36:29;6.75;;;1.58;;
53056;SDS011;38940;50.096;4.012;2023-06-26T08:38:55;12.88;;;1.88;;
53056;SDS011;38940;50.096;4.012;2023-06-26T08:41:21;8.48;;;1.73;;
53056;SDS011;38940;50.096;4.012;2023-06-26T08:43:47;11.43;;;1.80;;
53056;SDS011;38940;50.096;4.012;2023-06-26T08:46:16;10.15;;;1.67;;
53056;SDS011;38940;50.096;4.012;2023-06-26T08:48:42;5.28;;;1.30;;
53056;SDS011;38940;50.096;4.012;2023-06-26T08:51:11;5.85;;;1.48;;
53056;SDS011;38940;50.096;4.012;2023-06-26T08:53:57;7.68;;;1.30;;
53056;SDS011;38940;50.096;4.012;2023-06-26T08:56:24;9.63;;;1.58;;
53056;SDS011;38940;50.096;4.012;2023-06-26T08:58:50;10.38;;;1.60;;
53056;SDS011;38940;50.096;4.012;2023-06-26T09:01:16;8.38;;;1.20;;
53056;SDS011;38940;50.096;4.012;2023-06-26T09:03:43;7.33;;;1.50;;
53056;SDS011;38940;50.096;4.012;2023-06-26T09:06:09;9.55;;;1.35;;
53056;SDS011;38940;50.096;4.012;2023-06-26T09:08:36;8.48;;;1.20;;
53056;SDS011;38940;50.096;4.012;2023-06-26T09:11:02;5.00;;;1.20;;
53056;SDS011;38940;50.096;4.012;2023-06-26T09:13:28;10.27;;;1.20;;
53056;SDS011;38940;50.096;4.012;2023-06-26T09:15:55;7.40;;;1.30;;
53056;SDS011;38940;50.096;4.012;2023-06-26T09:18:21;7.55;;;1.40;;
53056;SDS011;38940;50.096;4.012;2023-06-26T09:20:47;3.30;;;1.10;;
53056;SDS011;38940;50.096;4.012;2023-06-26T09:23:13;5.70;;;1.10;;
53056;SDS011;38940;50.096;4.012;2023-06-26T09:25:40;7.10;;;1.17;;
53056;SDS011;38940;50.096;4.012;2023-06-26T09:28:06;7.85;;;1.48;;
53056;SDS011;38940;50.096;4.012;2023-06-26T09:30:32;4.90;;;1.20;;
53056;SDS011;38940;50.096;4.012;2023-06-26T09:33:12;5.68;;;1.10;;
53056;SDS011;38940;50.096;4.012;2023-06-26T09:35:38;4.43;;;0.88;;
53056;SDS011;38940;50.096;4.012;2023-06-26T09:38:04;4.93;;;1.07;;
53056;SDS011;38940;50.096;4.012;2023-06-26T09:40:30;6.28;;;1.45;;
53056;SDS011;38940;50.096;4.012;2023-06-26T09:43:06;7.28;;;1.27;;
53056;SDS011;38940;50.096;4.012;2023-06-26T09:45:35;6.70;;;1.23;;
53056;SDS011;38940;50.096;4.012;2023-06-26T09:48:02;4.95;;;1.20;;
53056;SDS011;38940;50.096;4.012;2023-06-26T09:50:28;8.55;;;1.30;;
53056;SDS011;38940;50.096;4.012;2023-06-26T09:52:55;5.03;;;1.20;;
53056;SDS011;38940;50.096;4.012;2023-06-26T09:55:21;4.15;;;1.27;;
53056;SDS011;38940;50.096;4.012;2023-06-26T09:57:48;8.57;;;1.25;;
53056;SDS011;38940;50.096;4.012;2023-06-26T10:00:15;5.77;;;1.40;;
53056;SDS011;38940;50.096;4.012;2023-06-26T10:02:41;5.68;;;1.30;;
53056;SDS011;38940;50.096;4.012;2023-06-26T10:05:07;4.28;;;1.10;;
53056;SDS011;38940;50.096;4.012;2023-06-26T10:07:34;8.20;;;1.33;;
53056;SDS011;38940;50.096;4.012;2023-06-26T10:10:02;5.22;;;1.40;;
53056;SDS011;38940;50.096;4.012;2023-06-26T10:12:29;7.50;;;1.20;;
53056;SDS011;38940;50.096;4.012;2023-06-26T10:14:56;6.30;;;1.30;;
53056;SDS011;38940;50.096;4.012;2023-06-26T10:17:24;4.75;;;1.35;;
53056;SDS011;38940;50.096;4.012;2023-06-26T10:19:51;5.47;;;1.30;;
53056;SDS011;38940;50.096;4.012;2023-06-26T10:22:19;3.93;;;1.10;;
53056;SDS011;38940;50.096;4.012;2023-06-26T10:24:47;6.00;;;1.13;;
53056;SDS011;38940;50.096;4.012;2023-06-26T10:27:17;6.23;;;1.57;;
53056;SDS011;38940;50.096;4.012;2023-06-26T10:29:45;4.53;;;1.10;;
53056;SDS011;38940;50.096;4.012;2023-06-26T10:32:12;3.90;;;1.10;;
53056;SDS011;38940;50.096;4.012;2023-06-26T10:34:39;5.93;;;1.60;;
53056;SDS011;38940;50.096;4.012;2023-06-26T10:37:05;4.35;;;1.10;;
53056;SDS011;38940;50.096;4.012;2023-06-26T10:39:51;5.77;;;1.30;;
53056;SDS011;38940;50.096;4.012;2023-06-26T10:42:20;3.53;;;1.23;;
53056;SDS011;38940;50.096;4.012;2023-06-26T10:44:54;5.90;;;1.03;;
53056;SDS011;38940;50.096;4.012;2023-06-26T10:47:32;6.32;;;1.10;;
53056;SDS011;38940;50.096;4.012;2023-06-26T10:52:43;5.82;;;1.10;;
53056;SDS011;38940;50.096;4.012;2023-06-26T10:55:09;4.60;;;1.05;;
53056;SDS011;38940;50.096;4.012;2023-06-26T10:57:38;7.27;;;1.30;;
53056;SDS011;38940;50.096;4.012;2023-06-26T11:00:10;3.78;;;1.00;;
53056;SDS011;38940;50.096;4.012;2023-06-26T11:02:49;3.90;;;1.15;;
53056;SDS011;38940;50.096;4.012;2023-06-26T11:05:25;4.10;;;1.30;;
53056;SDS011;38940;50.096;4.012;2023-06-26T11:08:04;6.20;;;0.93;;
53056;SDS011;38940;50.096;4.012;2023-06-26T11:10:47;5.88;;;1.35;;
53056;SDS011;38940;50.096;4.012;2023-06-26T11:13:15;7.65;;;1.80;;
53056;SDS011;38940;50.096;4.012;2023-06-26T11:15:42;6.88;;;1.30;;
53056;SDS011;38940;50.096;4.012;2023-06-26T11:18:09;4.00;;;1.08;;
53056;SDS011;38940;50.096;4.012;2023-06-26T11:20:36;4.65;;;1.10;;
53056;SDS011;38940;50.096;4.012;2023-06-26T11:23:03;6.72;;;1.35;;
53056;SDS011;38940;50.096;4.012;2023-06-26T11:25:33;3.60;;;1.00;;
53056;SDS011;38940;50.096;4.012;2023-06-26T11:28:00;4.18;;;1.10;;
53056;SDS011;38940;50.096;4.012;2023-06-26T11:30:26;4.57;;;1.10;;
53056;SDS011;38940;50.096;4.012;2023-06-26T11:32:52;3.60;;;1.40;;
53056;SDS011;38940;50.096;4.012;2023-06-26T11:35:25;4.35;;;1.00;;
53056;SDS011;38940;50.096;4.012;2023-06-26T11:37:59;4.97;;;1.00;;
53056;SDS011;38940;50.096;4.012;2023-06-26T11:40:25;5.25;;;1.50;;
53056;SDS011;38940;50.096;4.012;2023-06-26T11:42:57;5.13;;;1.20;;
53056;SDS011;38940;50.096;4.012;2023-06-26T11:45:23;4.13;;;1.02;;
53056;SDS011;38940;50.096;4.012;2023-06-26T11:47:49;6.53;;;1.15;;
53056;SDS011;38940;50.096;4.012;2023-06-26T11:50:16;7.18;;;1.15;;
53056;SDS011;38940;50.096;4.012;2023-06-26T11:52:42;11.88;;;1.20;;
53056;SDS011;38940;50.096;4.012;2023-06-26T11:55:09;6.37;;;1.20;;
53056;SDS011;38940;50.096;4.012;2023-06-26T11:57:35;5.40;;;1.20;;
53056;SDS011;38940;50.096;4.012;2023-06-26T12:00:11;8.47;;;1.20;;
53056;SDS011;38940;50.096;4.012;2023-06-26T12:02:37;5.90;;;1.10;;
53056;SDS011;38940;50.096;4.012;2023-06-26T12:05:03;4.35;;;1.10;;
53056;SDS011;38940;50.096;4.012;2023-06-26T12:07:30;5.87;;;1.20;;
53056;SDS011;38940;50.096;4.012;2023-06-26T12:09:56;8.80;;;1.10;;
53056;SDS011;38940;50.096;4.012;2023-06-26T12:12:23;6.57;;;1.10;;
53056;SDS011;38940;50.096;4.012;2023-06-26T12:14:49;6.32;;;1.08;;
53056;SDS011;38940;50.096;4.012;2023-06-26T12:17:16;4.15;;;1.33;;
53056;SDS011;38940;50.096;4.012;2023-06-26T12:19:43;3.67;;;1.07;;
53056;SDS011;38940;50.096;4.012;2023-06-26T12:22:10;4.35;;;1.17;;
53056;SDS011;38940;50.096;4.012;2023-06-26T12:24:39;5.55;;;1.10;;
53056;SDS011;38940;50.096;4.012;2023-06-26T12:27:08;8.23;;;1.30;;
53056;SDS011;38940;50.096;4.012;2023-06-26T12:29:34;7.75;;;1.10;;
53056;SDS011;38940;50.096;4.012;2023-06-26T12:32:01;5.18;;;1.20;;
53056;SDS011;38940;50.096;4.012;2023-06-26T12:34:37;7.30;;;1.10;;
53056;SDS011;38940;50.096;4.012;2023-06-26T12:37:08;6.15;;;1.30;;
53056;SDS011;38940;50.096;4.012;2023-06-26T12:39:50;3.55;;;1.00;;
53056;SDS011;38940;50.096;4.012;2023-06-26T12:42:20;8.53;;;1.43;;
53056;SDS011;38940;50.096;4.012;2023-06-26T12:44:47;4.45;;;1.20;;
53056;SDS011;38940;50.096;4.012;2023-06-26T12:47:14;13.65;;;1.45;;
53056;SDS011;38940;50.096;4.012;2023-06-26T12:49:41;7.30;;;1.20;;
53056;SDS011;38940;50.096;4.012;2023-06-26T12:52:08;7.43;;;1.25;;
53056;SDS011;38940;50.096;4.012;2023-06-26T12:54:34;4.85;;;1.23;;
53056;SDS011;38940;50.096;4.012;2023-06-26T12:57:01;5.95;;;1.17;;
53056;SDS011;38940;50.096;4.012;2023-06-26T12:59:28;4.43;;;1.30;;
53056;SDS011;38940;50.096;4.012;2023-06-26T13:01:55;5.55;;;1.05;;
53056;SDS011;38940;50.096;4.012;2023-06-26T13:04:21;9.10;;;1.20;;
53056;SDS011;38940;50.096;4.012;2023-06-26T13:06:47;3.72;;;1.13;;
53056;SDS011;38940;50.096;4.012;2023-06-26T13:09:13;4.38;;;1.20;;
53056;SDS011;38940;50.096;4.012;2023-06-26T13:11:39;7.30;;;1.40;;
53056;SDS011;38940;50.096;4.012;2023-06-26T13:14:05;4.28;;;1.13;;
53056;SDS011;38940;50.096;4.012;2023-06-26T13:16:31;6.47;;;1.10;;
53056;SDS011;38940;50.096;4.012;2023-06-26T13:18:58;4.63;;;0.98;;
53056;SDS011;38940;50.096;4.012;2023-06-26T13:21:24;2.13;;;1.00;;
53056;SDS011;38940;50.096;4.012;2023-06-26T13:23:50;8.00;;;0.85;;
53056;SDS011;38940;50.096;4.012;2023-06-26T13:26:16;8.82;;;1.25;;
53056;SDS011;38940;50.096;4.012;2023-06-26T13:28:42;5.90;;;1.20;;
53056;SDS011;38940;50.096;4.012;2023-06-26T13:31:08;4.55;;;1.00;;
53056;SDS011;38940;50.096;4.012;2023-06-26T13:33:34;2.47;;;0.90;;
53056;SDS011;38940;50.096;4.012;2023-06-26T13:36:00;2.90;;;1.00;;
53056;SDS011;38940;50.096;4.012;2023-06-26T13:38:29;5.47;;;0.95;;
53056;SDS011;38940;50.096;4.012;2023-06-26T13:40:55;4.43;;;1.23;;
53056;SDS011;38940;50.096;4.012;2023-06-26T13:43:22;5.55;;;1.10;;
53056;SDS011;38940;50.096;4.012;2023-06-26T13:45:48;5.80;;;1.00;;
53056;SDS011;38940;50.096;4.012;2023-06-26T13:48:15;5.30;;;1.10;;
53056;SDS011;38940;50.096;4.012;2023-06-26T13:50:41;7.72;;;1.02;;
53056;SDS011;38940;50.096;4.012;2023-06-26T13:53:07;4.80;;;1.10;;
53056;SDS011;38940;50.096;4.012;2023-06-26T13:55:33;5.97;;;1.42;;
53056;SDS011;38940;50.096;4.012;2023-06-26T13:58:00;3.38;;;1.00;;
53056;SDS011;38940;50.096;4.012;2023-06-26T14:00:30;3.97;;;1.30;;
53056;SDS011;38940;50.096;4.012;2023-06-26T14:02:57;5.18;;;1.17;;
53056;SDS011;38940;50.096;4.012;2023-06-26T14:05:23;5.28;;;1.30;;
53056;SDS011;38940;50.096;4.012;2023-06-26T14:07:49;8.07;;;1.20;;
53056;SDS011;38940;50.096;4.012;2023-06-26T14:10:15;7.40;;;1.10;;
53056;SDS011;38940;50.096;4.012;2023-06-26T14:12:41;4.13;;;0.93;;
53056;SDS011;38940;50.096;4.012;2023-06-26T14:15:07;5.03;;;1.13;;
53056;SDS011;38940;50.096;4.012;2023-06-26T14:17:33;3.72;;;1.10;;
53056;SDS011;38940;50.096;4.012;2023-06-26T14:19:59;5.57;;;1.10;;
53056;SDS011;38940;50.096;4.012;2023-06-26T14:22:25;7.50;;;1.27;;
53056;SDS011;38940;50.096;4.012;2023-06-26T14:24:51;4.70;;;1.00;;
53056;SDS011;38940;50.096;4.012;2023-06-26T14:27:17;6.25;;;1.33;;
53056;SDS011;38940;50.096;4.012;2023-06-26T14:29:43;3.90;;;1.33;;
53056;SDS011;38940;50.096;4.012;2023-06-26T14:32:10;5.22;;;1.20;;
53056;SDS011;38940;50.096;4.012;2023-06-26T14:34:36;4.63;;;1.08;;
53056;SDS011;38940;50.096;4.012;2023-06-26T14:37:02;5.93;;;1.20;;
53056;SDS011;38940;50.096;4.012;2023-06-26T14:39:28;10.05;;;1.42;;
53056;SDS011;38940;50.096;4.012;2023-06-26T14:41:54;4.10;;;1.00;;
53056;SDS011;38940;50.096;4.012;2023-06-26T14:44:20;3.88;;;0.93;;
53056;SDS011;38940;50.096;4.012;2023-06-26T14:46:46;6.65;;;1.20;;
53056;SDS011;38940;50.096;4.012;2023-06-26T14:49:12;6.07;;;1.17;;
53056;SDS011;38940;50.096;4.012;2023-06-26T14:51:38;9.63;;;1.15;;